Time;durP1;ratioP1;P1;durP2;ratioP2;P2;SDS_P1;SDS_P2;PMS_P1;PMS_P2;Temp;Humidity;BMP_temperature;BMP_pressure;BME280_temperature;BME280_humidity;BME280_pressure;Samples;Min_cycle;Max_cycle;Signal;HPM_P1;HPM_P2
2022/05/25 00:00:10;;;;;;;2.80;2.30;;;11.50;99.90;;;;;;5033394;28;20180;-83
2022/05/25 00:02:37;;;;;;;3.07;2.50;;;11.40;99.90;;;;;;5033944;28;20180;-81
2022/05/25 00:05:04;;;;;;;4.73;2.50;;;11.30;99.90;;;;;;5033833;28;20669;-82
2022/05/25 00:07:30;;;;;;;5.40;2.40;;;11.20;99.90;;;;;;5034312;28;20281;-83
2022/05/25 00:09:56;;;;;;;3.80;2.50;;;11.20;99.90;;;;;;5034243;28;20209;-83
2022/05/25 00:12:22;;;;;;;3.33;2.60;;;11.10;99.90;;;;;;5034482;28;20185;-83
2022/05/25 00:14:48;;;;;;;4.07;2.57;;;11.20;99.90;;;;;;5034065;28;20179;-82
2022/05/25 00:17:14;;;;;;;3.50;2.83;;;11.20;99.90;;;;;;5034036;28;20179;-82
2022/05/25 00:22:24;;;;;;;4.10;2.40;;;11.30;99.90;;;;;;5035780;28;20704;-82
2022/05/25 00:24:50;;;;;;;6.97;2.67;;;11.20;99.90;;;;;;5034462;28;20200;-83
2022/05/25 00:27:17;;;;;;;3.57;2.50;;;11.20;99.90;;;;;;5034159;28;20178;-83
2022/05/25 00:29:43;;;;;;;3.30;2.73;;;11.10;99.90;;;;;;5034095;28;20239;-83
2022/05/25 00:32:09;;;;;;;3.97;2.33;;;11.10;99.90;;;;;;5032777;28;20211;-82
2022/05/25 00:34:35;;;;;;;6.03;2.63;;;11.00;99.90;;;;;;5033204;28;20628;-83
2022/05/25 00:37:00;;;;;;;3.27;2.70;;;11.00;99.90;;;;;;5033781;28;20182;-84
2022/05/25 00:39:26;;;;;;;2.80;2.60;;;10.90;99.90;;;;;;5032841;28;20530;-83
2022/05/25 00:41:52;;;;;;;7.43;2.40;;;10.90;99.90;;;;;;5033488;28;20263;-83
2022/05/25 00:44:18;;;;;;;3.30;2.63;;;10.90;99.90;;;;;;5033557;28;20206;-83
2022/05/25 00:46:45;;;;;;;3.43;2.70;;;10.80;99.90;;;;;;5033576;28;20188;-83
2022/05/25 00:49:23;;;;;;;8.23;2.70;;;10.80;99.90;;;;;;5033593;28;20179;-82
2022/05/25 00:52:04;;;;;;;4.10;2.60;;;10.80;99.90;;;;;;5033619;28;20245;-83
2022/05/25 00:54:54;;;;;;;3.43;2.80;;;10.80;99.90;;;;;;5033758;28;20200;-83
2022/05/25 00:57:23;;;;;;;3.37;2.70;;;10.80;99.90;;;;;;5033410;28;20714;-83
2022/05/25 01:00:09;;;;;;;4.47;2.60;;;10.80;99.90;;;;;;5032519;28;20179;-82
2022/05/25 01:02:57;;;;;;;4.60;2.50;;;10.70;99.90;;;;;;5034218;28;20176;-82
2022/05/25 01:05:31;;;;;;;4.13;2.90;;;10.70;99.90;;;;;;5033175;28;20609;-82
2022/05/25 01:08:08;;;;;;;6.67;2.97;;;10.60;99.90;;;;;;5033169;28;20245;-83
2022/05/25 01:10:40;;;;;;;3.90;2.87;;;10.70;99.90;;;;;;5032548;28;20202;-84
2022/05/25 01:13:29;;;;;;;5.63;3.07;;;10.60;99.90;;;;;;5032837;28;20179;-84
2022/05/25 01:16:01;;;;;;;3.40;2.83;;;10.50;99.90;;;;;;5012440;28;20227;-84
2022/05/25 01:18:49;;;;;;;3.73;3.03;;;10.60;99.90;;;;;;5033050;28;20185;-84
2022/05/25 01:21:20;;;;;;;5.40;3.43;;;10.60;99.90;;;;;;5032495;28;20205;-84
2022/05/25 01:24:04;;;;;;;5.90;3.73;;;10.50;99.90;;;;;;5032235;28;20173;-84
2022/05/25 01:26:55;;;;;;;4.37;3.70;;;10.50;99.90;;;;;;5032401;28;20178;-84
2022/05/25 01:29:39;;;;;;;5.33;3.60;;;10.50;99.90;;;;;;5032010;28;20180;-85
2022/05/25 01:32:20;;;;;;;7.00;3.70;;;10.40;99.90;;;;;;5032514;28;20294;-82
2022/05/25 01:35:20;;;;;;;8.27;3.77;;;10.40;99.90;;;;;;5032195;28;20184;-82
2022/05/25 01:37:51;;;;;;;5.20;4.00;;;10.40;99.90;;;;;;5024878;28;20221;-82
2022/05/25 01:40:42;;;;;;;5.80;4.13;;;10.40;99.90;;;;;;5030856;28;20198;-84
2022/05/25 01:43:28;;;;;;;7.17;4.37;;;10.40;99.90;;;;;;5030760;28;20228;-82
2022/05/25 01:46:05;;;;;;;6.47;4.10;;;10.30;99.90;;;;;;5034799;28;20644;-85
2022/05/25 01:48:34;;;;;;;5.97;3.70;;;10.30;99.90;;;;;;5036079;28;20177;-85
2022/05/25 01:51:07;;;;;;;7.87;4.43;;;10.30;99.90;;;;;;5036751;28;20480;-85
2022/05/25 01:53:41;;;;;;;5.73;3.83;;;10.30;99.90;;;;;;5037845;28;20225;-84
2022/05/25 01:56:10;;;;;;;6.97;4.47;;;10.30;99.90;;;;;;5036760;28;20185;-85
2022/05/25 01:58:46;;;;;;;5.50;4.53;;;10.20;99.90;;;;;;5036571;28;20658;-86
2022/05/25 02:01:12;;;;;;;9.67;4.33;;;10.20;99.90;;;;;;5036307;28;20191;-85
2022/05/25 02:06:39;;;;;;;6.50;5.17;;;10.20;99.90;;;;;;5038130;28;20224;-83
2022/05/25 02:09:40;;;;;;;9.93;5.57;;;10.30;99.90;;;;;;5036495;28;20642;-82
2022/05/25 02:12:11;;;;;;;8.33;5.57;;;10.30;99.90;;;;;;5001002;28;20755;-84
2022/05/25 02:15:02;;;;;;;8.50;5.77;;;10.20;99.90;;;;;;5036176;28;20177;-86
2022/05/25 02:17:55;;;;;;;7.77;5.93;;;10.20;99.90;;;;;;5036533;28;20176;-86
2022/05/25 02:20:53;;;;;;;9.60;6.30;;;10.20;99.90;;;;;;5036344;28;20205;-86
2022/05/25 02:23:38;;;;;;;9.07;6.20;;;10.30;99.90;;;;;;5031567;28;20185;-84
2022/05/25 02:26:16;;;;;;;9.30;5.90;;;10.20;99.90;;;;;;5036512;28;20186;-84
2022/05/25 02:29:10;;;;;;;9.20;6.30;;;10.20;99.90;;;;;;5036980;28;20184;-84
2022/05/25 02:31:44;;;;;;;9.90;6.23;;;10.20;99.90;;;;;;5029870;28;20293;-85
2022/05/25 02:34:12;;;;;;;11.57;6.27;;;10.10;99.90;;;;;;5035517;28;20473;-84
2022/05/25 02:36:39;;;;;;;10.90;6.20;;;10.00;99.90;;;;;;5035727;28;20206;-84
2022/05/25 02:39:06;;;;;;;9.07;6.43;;;9.90;99.90;;;;;;5036288;28;20545;-85
2022/05/25 02:41:34;;;;;;;10.17;6.80;;;9.80;99.90;;;;;;5035531;28;20198;-83
2022/05/25 02:44:02;;;;;;;13.20;7.23;;;9.80;99.90;;;;;;5037780;28;20178;-84
2022/05/25 02:46:27;;;;;;;11.20;7.17;;;10.00;99.90;;;;;;5035835;28;20179;-84
2022/05/25 02:48:54;;;;;;;13.97;7.33;;;10.00;99.90;;;;;;5034730;28;20587;-83
2022/05/25 02:51:20;;;;;;;10.47;7.20;;;10.00;99.90;;;;;;5035427;28;20201;-85
2022/05/25 02:53:45;;;;;;;16.07;7.67;;;10.00;99.90;;;;;;5035686;28;20247;-85
2022/05/25 02:56:11;;;;;;;11.43;7.03;;;9.90;99.90;;;;;;5034310;28;20199;-84
2022/05/25 02:58:37;;;;;;;14.57;7.17;;;10.00;99.90;;;;;;5035415;28;20170;-85
2022/05/25 03:01:03;;;;;;;11.67;7.20;;;10.00;99.90;;;;;;5035117;28;20351;-84
2022/05/25 03:03:32;;;;;;;13.70;7.97;;;9.90;99.90;;;;;;5034977;28;20178;-84
2022/05/25 03:05:58;;;;;;;11.03;7.00;;;9.90;99.90;;;;;;5034928;28;20178;-85
2022/05/25 03:08:24;;;;;;;12.43;7.97;;;9.90;99.90;;;;;;5035023;28;20518;-85
2022/05/25 03:10:49;;;;;;;13.60;7.87;;;10.00;99.90;;;;;;5034407;28;20199;-84
2022/05/25 03:13:15;;;;;;;12.10;8.17;;;9.90;99.90;;;;;;5036012;28;20189;-85
2022/05/25 03:15:41;;;;;;;13.70;8.17;;;10.00;99.90;;;;;;5035228;28;20205;-84
2022/05/25 03:18:07;;;;;;;17.97;7.87;;;10.00;99.90;;;;;;5035603;28;20175;-83
2022/05/25 03:20:33;;;;;;;13.27;8.37;;;10.00;99.90;;;;;;5035398;28;20230;-83
2022/05/25 03:22:58;;;;;;;15.43;8.00;;;10.00;99.90;;;;;;5035702;28;20464;-84
2022/05/25 03:25:24;;;;;;;12.50;8.60;;;9.90;99.90;;;;;;5035583;28;20179;-83
2022/05/25 03:27:50;;;;;;;16.00;8.27;;;10.00;99.90;;;;;;5034892;28;20185;-84
2022/05/25 03:30:17;;;;;;;21.90;9.43;;;10.00;99.90;;;;;;5034934;28;20202;-83
2022/05/25 03:32:43;;;;;;;11.60;7.93;;;10.00;99.90;;;;;;5035335;28;20250;-85
2022/05/25 03:35:10;;;;;;;14.80;8.70;;;10.00;99.90;;;;;;5034401;28;20225;-84
2022/05/25 03:37:36;;;;;;;12.73;7.67;;;10.00;99.90;;;;;;5035371;28;20241;-84
2022/05/25 03:40:09;;;;;;;11.87;7.87;;;9.90;99.90;;;;;;5034992;28;20174;-85
2022/05/25 03:42:35;;;;;;;11.90;8.03;;;9.80;99.90;;;;;;5035531;28;20197;-85
2022/05/25 03:45:04;;;;;;;14.80;8.27;;;10.00;99.90;;;;;;5034690;28;20186;-84
2022/05/25 03:47:30;;;;;;;16.07;8.77;;;10.00;99.90;;;;;;5034163;28;20181;-83
2022/05/25 03:49:56;;;;;;;16.37;8.80;;;10.00;99.90;;;;;;5034709;28;20221;-83
2022/05/25 03:52:23;;;;;;;12.83;8.50;;;10.00;99.90;;;;;;5035057;28;20178;-84
2022/05/25 03:54:49;;;;;;;14.07;8.40;;;9.90;99.90;;;;;;5036206;28;20174;-83
2022/05/25 03:57:15;;;;;;;13.47;8.50;;;9.90;99.90;;;;;;5034932;28;20197;-85
2022/05/25 03:59:40;;;;;;;18.00;8.33;;;9.90;99.90;;;;;;5034780;28;20643;-85
2022/05/25 04:02:06;;;;;;;11.40;8.20;;;9.90;99.90;;;;;;5034095;28;20194;-84
2022/05/25 04:04:32;;;;;;;14.87;8.33;;;10.00;99.90;;;;;;5035276;28;20681;-84
2022/05/25 04:06:57;;;;;;;15.13;8.60;;;9.90;99.90;;;;;;5034807;28;20185;-83
2022/05/25 04:09:23;;;;;;;16.00;8.90;;;10.00;99.90;;;;;;5034295;28;20260;-84
2022/05/25 04:11:49;;;;;;;13.97;8.13;;;10.00;99.90;;;;;;5033400;28;20226;-82
2022/05/25 04:14:15;;;;;;;16.83;7.93;;;10.10;99.90;;;;;;5034827;28;20214;-82
2022/05/25 04:16:42;;;;;;;13.33;7.63;;;10.10;99.90;;;;;;5035337;28;20296;-82
2022/05/25 04:19:08;;;;;;;13.80;8.00;;;10.20;99.90;;;;;;5035447;28;20569;-82
2022/05/25 04:21:34;;;;;;;14.30;8.50;;;10.20;99.90;;;;;;5035232;28;20288;-82
2022/05/25 04:24:00;;;;;;;14.27;8.37;;;10.20;99.90;;;;;;5035040;28;20635;-82
2022/05/25 04:26:28;;;;;;;12.00;7.77;;;10.30;99.90;;;;;;5034213;28;20265;-82
2022/05/25 04:28:54;;;;;;;14.67;8.17;;;10.20;99.90;;;;;;5034538;28;20284;-83
2022/05/25 04:31:19;;;;;;;12.13;7.87;;;10.40;99.90;;;;;;5034103;28;20226;-82
2022/05/25 04:33:45;;;;;;;13.37;7.60;;;10.50;99.90;;;;;;5034420;28;20180;-83
2022/05/25 04:36:11;;;;;;;12.33;6.53;;;10.70;99.90;;;;;;5034283;28;20194;-83
2022/05/25 04:38:36;;;;;;;10.63;5.47;;;11.00;99.90;;;;;;5035819;28;20171;-82
2022/05/25 04:41:02;;;;;;;8.60;4.80;;;11.30;99.90;;;;;;5033677;28;20196;-83
2022/05/25 04:43:28;;;;;;;7.87;4.60;;;11.50;99.90;;;;;;5033770;28;20173;-83
2022/05/25 04:45:55;;;;;;;8.60;4.50;;;11.70;99.90;;;;;;5033625;28;20177;-83
2022/05/25 04:48:23;;;;;;;7.67;4.50;;;11.90;99.90;;;;;;5033278;28;20545;-82
2022/05/25 04:50:50;;;;;;;7.13;4.10;;;12.10;99.90;;;;;;5033680;28;20201;-82
2022/05/25 04:53:18;;;;;;;8.93;4.17;;;12.30;99.90;;;;;;5034341;28;20283;-82
2022/05/25 04:58:30;;;;;;;6.10;4.30;;;12.40;99.90;;;;;;5035347;28;20203;-82
2022/05/25 05:00:56;;;;;;;7.50;4.50;;;12.60;99.90;;;;;;5032777;28;20190;-82
2022/05/25 05:03:23;;;;;;;6.73;4.47;;;12.50;99.90;;;;;;5033387;28;20173;-82
2022/05/25 05:05:50;;;;;;;8.43;4.70;;;12.50;99.90;;;;;;5033598;28;20215;-82
2022/05/25 05:08:16;;;;;;;9.00;4.30;;;12.40;99.90;;;;;;5033254;28;20279;-82
2022/05/25 05:10:42;;;;;;;9.10;4.43;;;12.60;99.90;;;;;;5032938;28;20204;-81
2022/05/25 05:13:08;;;;;;;8.03;4.40;;;12.60;99.90;;;;;;5032896;28;20570;-82
2022/05/25 05:15:36;;;;;;;8.50;4.47;;;12.80;99.90;;;;;;5033115;28;20230;-82
2022/05/25 05:18:02;;;;;;;7.80;4.40;;;13.00;99.90;;;;;;5031598;28;20166;-83
2022/05/25 05:20:29;;;;;;;11.73;4.57;;;13.10;99.90;;;;;;5032323;28;20194;-83
2022/05/25 05:22:54;;;;;;;13.13;5.07;;;13.10;99.90;;;;;;5032420;28;20669;-83
2022/05/25 05:25:20;;;;;;;11.30;5.10;;;12.90;99.90;;;;;;5033473;28;20182;-84
2022/05/25 05:27:46;;;;;;;11.67;5.03;;;12.90;99.90;;;;;;5032032;28;20184;-85
2022/05/25 05:30:15;;;;;;;10.07;5.20;;;13.10;99.90;;;;;;5032268;28;20264;-83
2022/05/25 05:32:40;;;;;;;9.07;5.20;;;13.20;99.90;;;;;;5032453;28;20190;-82
2022/05/25 05:35:06;;;;;;;9.83;4.57;;;13.20;99.90;;;;;;5032190;28;20659;-82
2022/05/25 05:37:43;;;;;;;7.80;4.57;;;13.30;99.90;;;;;;5032969;28;20220;-82
2022/05/25 05:40:10;;;;;;;10.00;4.57;;;13.40;99.90;;;;;;5031877;28;20606;-83
2022/05/25 05:42:39;;;;;;;7.87;4.10;;;13.50;99.90;;;;;;5032602;28;20273;-83
2022/05/25 05:45:14;;;;;;;8.83;4.00;;;13.80;99.90;;;;;;5031769;28;20261;-83
2022/05/25 05:47:49;;;;;;;8.27;4.30;;;14.00;99.90;;;;;;5032520;28;20673;-83
2022/05/25 05:50:16;;;;;;;8.73;4.07;;;14.40;99.90;;;;;;5033153;28;20699;-83
2022/05/25 05:52:42;;;;;;;7.63;4.00;;;14.40;99.90;;;;;;5034358;28;20272;-84
2022/05/25 05:55:08;;;;;;;9.00;3.67;;;14.60;99.90;;;;;;5035196;28;20226;-85
2022/05/25 05:57:38;;;;;;;6.67;3.80;;;14.60;99.90;;;;;;5032183;28;20181;-83
2022/05/25 06:00:06;;;;;;;7.30;3.63;;;14.80;99.90;;;;;;5032390;28;20344;-82
2022/05/25 06:02:32;;;;;;;7.33;4.13;;;14.90;99.90;;;;;;5016237;28;20225;-82
2022/05/25 06:04:57;;;;;;;7.17;4.07;;;14.80;99.90;;;;;;5033201;28;20174;-83
2022/05/25 06:07:23;;;;;;;7.23;4.23;;;15.10;99.90;;;;;;5032531;28;20171;-83
2022/05/25 06:09:49;;;;;;;8.10;4.53;;;15.30;99.90;;;;;;5033230;28;20232;-83
2022/05/25 06:12:15;;;;;;;6.13;3.92;;;15.60;99.90;;;;;;5032563;28;20193;-83
2022/05/25 06:14:41;;;;;;;9.07;4.43;;;15.80;99.90;;;;;;5033042;28;20543;-82
2022/05/25 06:19:52;;;;;;;8.57;4.28;;;16.00;99.90;;;;;;5034515;28;20201;-82
2022/05/25 06:22:21;;;;;;;10.35;4.45;;;16.20;99.90;;;;;;5032871;28;20198;-84
2022/05/25 06:24:49;;;;;;;10.82;4.20;;;16.20;99.90;;;;;;5033930;28;20189;-83
2022/05/25 06:27:16;;;;;;;8.52;4.93;;;16.30;99.90;;;;;;5032917;28;20549;-83
2022/05/25 06:29:44;;;;;;;7.47;4.55;;;16.30;99.90;;;;;;5033026;28;20170;-82
2022/05/25 06:32:11;;;;;;;6.85;4.25;;;16.50;99.90;;;;;;5034985;28;20292;-83
2022/05/25 06:34:39;;;;;;;8.85;4.82;;;16.90;99.90;;;;;;5036589;28;20174;-83
2022/05/25 06:37:05;;;;;;;8.52;4.63;;;17.00;99.90;;;;;;5035662;28;20682;-84
2022/05/25 06:39:37;;;;;;;8.30;4.05;;;17.10;99.90;;;;;;5035462;28;20261;-84
2022/05/25 06:42:04;;;;;;;7.80;4.70;;;17.10;99.90;;;;;;5036429;28;20189;-84
2022/05/25 06:44:31;;;;;;;6.05;4.85;;;16.90;99.90;;;;;;5037756;28;20697;-82
2022/05/25 06:46:57;;;;;;;10.80;5.38;;;17.30;99.90;;;;;;5035986;28;20200;-81
2022/05/25 06:49:22;;;;;;;8.05;5.00;;;17.60;99.90;;;;;;5034437;28;20709;-82
2022/05/25 06:51:48;;;;;;;9.95;5.80;;;17.60;99.90;;;;;;5034245;28;20208;-81
2022/05/25 06:54:16;;;;;;;10.48;5.40;;;17.60;99.90;;;;;;5033692;28;20189;-81
2022/05/25 06:56:41;;;;;;;12.60;6.55;;;17.70;99.90;;;;;;5033700;28;20206;-82
2022/05/25 06:59:08;;;;;;;14.48;6.38;;;17.90;99.90;;;;;;5034891;28;20166;-81
2022/05/25 07:01:35;;;;;;;11.85;6.63;;;17.50;99.90;;;;;;5034828;28;20205;-85
2022/05/25 07:04:00;;;;;;;12.00;6.18;;;18.10;99.90;;;;;;5035537;28;20181;-83
2022/05/25 07:06:27;;;;;;;12.02;7.00;;;18.10;99.90;;;;;;5036319;28;20182;-81
2022/05/25 07:08:53;;;;;;;11.77;6.60;;;18.30;99.90;;;;;;5037175;28;20236;-83
2022/05/25 07:11:20;;;;;;;12.75;7.07;;;18.20;99.90;;;;;;5035559;28;20221;-85
2022/05/25 07:13:46;;;;;;;14.52;7.15;;;18.30;99.90;;;;;;5035668;28;20220;-84
2022/05/25 07:16:14;;;;;;;9.90;6.38;;;18.60;99.90;;;;;;5035584;28;20271;-84
2022/05/25 07:18:42;;;;;;;12.70;6.97;;;18.60;99.90;;;;;;5035815;28;20535;-84
2022/05/25 07:21:11;;;;;;;12.30;6.63;;;18.90;99.90;;;;;;5035514;28;20186;-82
2022/05/25 07:23:38;;;;;;;14.40;7.07;;;18.80;99.90;;;;;;5035873;28;20170;-80
2022/05/25 07:26:04;;;;;;;11.90;7.20;;;19.20;99.90;;;;;;5036094;28;20206;-82
2022/05/25 07:28:30;;;;;;;9.57;6.97;;;18.20;99.90;;;;;;5035826;28;20181;-83
2022/05/25 07:31:01;;;;;;;11.23;7.93;;;18.50;99.90;;;;;;5037599;28;20666;-80
2022/05/25 07:33:27;;;;;;;11.55;7.20;;;18.30;99.90;;;;;;5036717;28;20173;-84
2022/05/25 07:35:53;;;;;;;12.20;7.30;;;18.20;99.90;;;;;;5036247;28;20202;-84
2022/05/25 07:38:19;;;;;;;13.90;7.40;;;18.30;99.90;;;;;;5037134;28;20181;-82
2022/05/25 07:40:45;;;;;;;13.25;6.72;;;18.60;99.90;;;;;;5035005;28;20735;-83
2022/05/25 07:43:22;;;;;;;12.50;6.65;;;18.60;99.90;;;;;;5034424;28;20174;-81
2022/05/25 07:45:47;;;;;;;10.45;6.13;;;18.60;99.90;;;;;;5035941;28;20174;-81
2022/05/25 07:48:13;;;;;;;9.60;5.40;;;18.60;99.90;;;;;;5035139;28;20593;-83
2022/05/25 07:50:40;;;;;;;6.80;4.22;;;18.80;99.90;;;;;;5035325;28;20197;-83
2022/05/25 07:53:55;;;;;;;10.88;4.63;;;19.00;99.90;;;;;;5035100;28;20194;-83
2022/05/25 07:55:53;;;;;;;8.13;4.38;;;18.60;99.90;;;;;;5038107;28;20197;-84
2022/05/25 07:58:19;;;;;;;7.65;4.30;;;18.50;99.90;;;;;;5037131;28;20177;-83
2022/05/25 08:00:45;;;;;;;9.05;3.30;;;18.40;99.90;;;;;;5037291;28;20212;-82
2022/05/25 08:05:59;;;;;;;5.70;2.97;;;19.00;99.90;;;;;;5037097;28;20185;-83
2022/05/25 08:08:25;;;;;;;2.88;2.40;;;19.40;99.90;;;;;;5036017;28;20178;-83
2022/05/25 08:11:03;;;;;;;7.85;2.70;;;19.30;99.90;;;;;;5035275;28;20240;-82
2022/05/25 08:13:30;;;;;;;6.13;2.70;;;19.60;99.90;;;;;;5037513;28;20220;-82
2022/05/25 08:15:56;;;;;;;2.88;2.20;;;19.60;99.90;;;;;;5035632;28;20208;-82
2022/05/25 08:18:22;;;;;;;2.95;2.13;;;19.70;99.90;;;;;;5035489;28;20593;-82
2022/05/25 08:20:48;;;;;;;3.40;1.90;;;19.40;99.90;;;;;;5035244;28;20196;-84
2022/05/25 08:23:16;;;;;;;2.17;1.98;;;20.00;99.90;;;;;;5036086;28;20170;-84
2022/05/25 08:25:43;;;;;;;3.17;2.15;;;20.30;99.90;;;;;;5036920;28;20197;-84
2022/05/25 08:28:09;;;;;;;2.35;2.00;;;20.40;99.50;;;;;;5035478;28;20180;-85
2022/05/25 08:30:37;;;;;;;8.07;2.33;;;19.90;99.50;;;;;;5034831;28;20193;-84
2022/05/25 08:33:03;;;;;;;5.18;2.35;;;20.10;99.10;;;;;;5034876;28;20185;-86
2022/05/25 08:35:32;;;;;;;4.75;2.30;;;20.30;99.70;;;;;;5034275;28;20197;-82
2022/05/25 08:37:58;;;;;;;6.25;2.50;;;19.60;99.90;;;;;;5035364;28;20676;-81
2022/05/25 08:40:27;;;;;;;2.22;1.65;;;20.40;99.00;;;;;;5036383;28;20198;-83
2022/05/25 08:43:03;;;;;;;4.30;1.58;;;19.80;98.80;;;;;;5038141;28;20200;-83
2022/05/25 08:45:38;;;;;;;1.67;1.42;;;19.80;97.90;;;;;;5036151;28;20180;-80
2022/05/25 08:48:06;;;;;;;2.17;1.50;;;20.20;98.90;;;;;;5033427;28;20261;-82
2022/05/25 08:50:32;;;;;;;2.75;1.58;;;20.50;98.80;;;;;;5034141;28;20211;-82
2022/05/25 08:53:01;;;;;;;3.97;1.45;;;20.80;94.70;;;;;;5033180;28;20190;-82
2022/05/25 08:56:01;;;;;;;1.77;1.10;;;21.10;94.80;;;;;;5033574;28;20202;-83
2022/05/25 08:58:52;;;;;;;2.67;1.50;;;20.80;93.00;;;;;;5033606;28;20170;-83
2022/05/25 09:01:34;;;;;;;6.93;1.90;;;20.70;95.10;;;;;;5033771;28;20686;-81
2022/05/25 09:04:29;;;;;;;2.95;1.40;;;20.60;93.90;;;;;;5034312;28;20189;-81
2022/05/25 09:07:07;;;;;;;5.15;1.80;;;20.40;95.80;;;;;;5033166;28;20178;-82
2022/05/25 09:09:45;;;;;;;3.40;2.10;;;20.40;94.10;;;;;;5033815;28;20526;-80
2022/05/25 09:12:18;;;;;;;5.80;1.55;;;20.90;93.00;;;;;;5032343;28;20193;-81
2022/05/25 09:14:49;;;;;;;7.70;1.83;;;21.60;91.60;;;;;;5033909;28;20185;-82
2022/05/25 09:17:36;;;;;;;6.05;1.80;;;21.20;92.10;;;;;;5033513;28;20598;-82
2022/05/25 09:20:03;;;;;;;2.28;1.27;;;21.00;92.30;;;;;;5033051;28;20659;-83
2022/05/25 09:22:32;;;;;;;4.20;1.85;;;20.70;93.60;;;;;;5033107;28;20170;-81
2022/05/25 09:25:01;;;;;;;2.65;1.67;;;20.80;93.60;;;;;;5033536;28;20170;-82
2022/05/25 09:27:36;;;;;;;3.40;1.50;;;21.10;91.80;;;;;;5033184;28;20539;-82
2022/05/25 09:30:03;;;;;;;3.60;1.77;;;21.50;93.20;;;;;;5033272;28;20165;-83
2022/05/25 09:32:33;;;;;;;4.43;1.80;;;21.80;93.10;;;;;;5032948;28;20197;-82
2022/05/25 09:35:22;;;;;;;3.80;1.70;;;22.10;90.50;;;;;;5033274;28;20170;-82
2022/05/25 09:38:03;;;;;;;3.40;1.67;;;21.40;93.20;;;;;;5032865;28;20181;-82
2022/05/25 09:40:35;;;;;;;2.63;1.35;;;21.60;91.50;;;;;;5033878;28;20271;-81
2022/05/25 09:43:04;;;;;;;2.28;1.60;;;21.00;92.80;;;;;;5033168;28;20563;-82
2022/05/25 09:45:40;;;;;;;4.00;1.52;;;20.00;91.40;;;;;;5032404;28;20181;-82
2022/05/25 09:48:14;;;;;;;5.20;1.50;;;20.30;91.50;;;;;;5032233;28;20177;-83
2022/05/25 09:50:51;;;;;;;3.45;1.48;;;20.40;92.80;;;;;;5033739;28;20260;-81
2022/05/25 09:53:20;;;;;;;2.22;1.23;;;20.60;94.70;;;;;;5032946;28;20219;-84
2022/05/25 09:56:03;;;;;;;2.53;1.40;;;20.90;90.50;;;;;;5031043;28;20194;-82
2022/05/25 09:58:38;;;;;;;2.15;1.30;;;21.00;89.80;;;;;;5030979;28;20300;-82
2022/05/25 10:01:15;;;;;;;3.00;1.50;;;21.10;91.40;;;;;;5030441;28;20567;-82
2022/05/25 10:03:43;;;;;;;2.17;1.35;;;20.30;90.80;;;;;;5030626;28;20260;-83
2022/05/25 10:06:49;;;;;;;2.58;1.25;;;21.00;92.60;;;;;;5034927;28;20181;-83
2022/05/25 10:09:23;;;;;;;3.92;1.38;;;21.50;91.40;;;;;;5028439;28;20224;-83
2022/05/25 10:11:52;;;;;;;2.70;1.40;;;21.20;91.10;;;;;;5034042;28;20202;-81
2022/05/25 10:14:24;;;;;;;2.20;1.20;;;21.50;89.40;;;;;;5034310;28;20181;-82
2022/05/25 10:16:52;;;;;;;1.60;1.40;;;21.80;90.50;;;;;;5034551;28;20216;-80
2022/05/25 10:19:20;;;;;;;1.83;1.10;;;21.20;89.30;;;;;;5034894;28;20170;-83
2022/05/25 10:21:55;;;;;;;2.90;1.20;;;20.90;90.50;;;;;;5034181;28;20198;-82
2022/05/25 10:24:34;;;;;;;1.50;1.10;;;20.40;91.10;;;;;;5034533;28;20601;-82
2022/05/25 10:27:03;;;;;;;2.85;1.25;;;20.30;91.70;;;;;;5035436;28;20603;-81
2022/05/25 10:38:30;;;;;;;0.85;0.85;;;21.40;89.60;;;;;;5035781;28;20200;-82
2022/05/25 10:40:58;;;;;;;1.85;1.00;;;21.70;86.40;;;;;;5034032;28;20198;-81
2022/05/25 10:43:30;;;;;;;4.03;0.90;;;21.70;87.00;;;;;;5033943;28;20185;-81
2022/05/25 10:46:00;;;;;;;1.83;1.27;;;21.00;88.20;;;;;;5033972;28;20185;-82
2022/05/25 10:48:49;;;;;;;3.63;1.20;;;21.80;85.80;;;;;;5033920;28;20200;-81
2022/05/25 10:51:33;;;;;;;4.53;1.67;;;21.50;91.50;;;;;;5033439;28;20670;-82
2022/05/25 10:57:12;;;;;;;2.88;1.00;;;20.80;90.60;;;;;;5034742;28;20204;-82
2022/05/25 10:59:48;;;;;;;1.10;1.00;;;20.40;91.60;;;;;;5033649;28;20224;-81
2022/05/25 11:02:29;;;;;;;3.08;1.00;;;20.60;91.00;;;;;;5034388;28;20208;-81
2022/05/25 11:05:13;;;;;;;3.15;1.00;;;20.30;90.10;;;;;;5033674;28;20541;-81
2022/05/25 11:07:42;;;;;;;1.00;0.90;;;20.70;88.70;;;;;;5034098;28;20173;-83
2022/05/25 11:10:26;;;;;;;1.38;0.93;;;20.70;89.80;;;;;;5033078;28;20182;-82
2022/05/25 11:13:21;;;;;;;1.42;1.10;;;20.70;90.40;;;;;;5033081;28;20643;-82
2022/05/25 11:16:31;;;;;;;2.13;1.25;;;20.80;89.70;;;;;;5032989;28;20198;-82
2022/05/25 11:19:08;;;;;;;2.67;1.10;;;21.00;90.30;;;;;;5033441;28;20166;-83
2022/05/25 11:21:39;;;;;;;1.30;1.20;;;20.60;90.20;;;;;;5032957;28;20197;-84
2022/05/25 11:24:16;;;;;;;1.20;1.10;;;20.40;90.90;;;;;;5034449;28;20621;-81
2022/05/25 11:27:05;;;;;;;1.45;0.90;;;19.90;90.50;;;;;;5034720;28;20185;-83
2022/05/25 11:29:37;;;;;;;2.50;0.90;;;20.20;90.50;;;;;;5034988;28;20170;-82
2022/05/25 11:32:08;;;;;;;2.47;1.08;;;20.10;90.50;;;;;;5036393;28;20190;-83
2022/05/25 11:34:51;;;;;;;4.93;1.08;;;19.70;90.90;;;;;;5034181;28;20666;-81
2022/05/25 11:37:37;;;;;;;2.83;1.05;;;19.60;90.80;;;;;;5034329;28;20697;-81
2022/05/25 11:40:06;;;;;;;2.53;1.00;;;19.40;91.80;;;;;;5032504;28;20654;-83
2022/05/25 11:42:57;;;;;;;3.08;1.17;;;19.50;91.30;;;;;;5033255;28;20619;-82
2022/05/25 11:45:37;;;;;;;3.60;0.90;;;20.20;91.10;;;;;;5033179;28;20232;-81
2022/05/25 11:48:29;;;;;;;1.15;0.90;;;20.30;90.30;;;;;;5034220;28;20709;-82
2022/05/25 11:51:04;;;;;;;4.00;1.10;;;20.60;87.70;;;;;;5026785;28;20206;-82
2022/05/25 11:53:43;;;;;;;2.25;0.90;;;21.00;90.10;;;;;;5034809;28;20197;-81
2022/05/25 11:56:37;;;;;;;4.22;1.10;;;21.50;89.30;;;;;;5034420;28;20240;-81
2022/05/25 11:59:18;;;;;;;3.80;1.48;;;20.90;87.60;;;;;;5028653;28;20277;-83
2022/05/25 12:01:50;;;;;;;2.28;1.00;;;21.00;88.40;;;;;;5034528;28;20193;-82
2022/05/25 12:04:43;;;;;;;1.67;1.10;;;21.50;86.00;;;;;;5034618;28;20578;-83
2022/05/25 12:07:18;;;;;;;2.28;1.00;;;21.50;85.50;;;;;;5034515;28;20769;-83
2022/05/25 12:09:44;;;;;;;1.23;1.00;;;21.60;88.20;;;;;;5035043;28;20177;-84
2022/05/25 12:12:31;;;;;;;5.93;1.38;;;21.50;86.00;;;;;;5035288;28;20216;-82
2022/05/25 12:15:41;;;;;;;4.68;1.10;;;21.20;88.60;;;;;;5034948;28;20174;-80
2022/05/25 12:18:39;;;;;;;1.92;1.00;;;20.90;87.60;;;;;;5024570;28;20188;-82
2022/05/25 12:21:21;;;;;;;2.08;1.02;;;20.90;91.90;;;;;;5027390;28;20194;-81
2022/05/25 12:23:51;;;;;;;0.95;0.95;;;21.20;88.00;;;;;;5035317;28;20173;-82
2022/05/25 12:26:25;;;;;;;1.02;1.00;;;20.90;87.10;;;;;;5034293;28;20178;-82
2022/05/25 12:28:57;;;;;;;3.25;1.00;;;20.70;88.10;;;;;;5034308;28;20182;-82
2022/05/25 12:31:28;;;;;;;2.58;1.00;;;20.70;90.80;;;;;;5034784;28;20200;-82
2022/05/25 12:33:54;;;;;;;2.63;1.00;;;20.80;90.20;;;;;;5034868;28;20185;-82
2022/05/25 12:36:21;;;;;;;0.82;0.80;;;21.30;88.00;;;;;;5034059;28;20415;-84
2022/05/25 12:38:46;;;;;;;3.28;1.20;;;21.00;88.40;;;;;;5034410;28;20546;-83
2022/05/25 12:41:23;;;;;;;1.05;0.90;;;20.50;86.90;;;;;;5034955;28;20669;-84
2022/05/25 12:43:51;;;;;;;0.85;0.85;;;20.30;85.70;;;;;;5035886;28;20673;-84
2022/05/25 12:49:08;;;;;;;2.60;0.82;;;20.00;84.80;;;;;;5037149;28;20185;-82
2022/05/25 12:51:46;;;;;;;1.45;0.88;;;20.10;83.70;;;;;;5037410;28;20194;-83
2022/05/25 12:54:33;;;;;;;1.05;0.90;;;19.90;85.30;;;;;;5036289;28;20216;-83
2022/05/25 12:57:01;;;;;;;3.30;0.90;;;19.80;86.70;;;;;;5035978;28;20209;-82
2022/05/25 12:59:40;;;;;;;1.20;0.68;;;20.20;84.30;;;;;;5021652;28;20654;-83
2022/05/25 13:02:24;;;;;;;1.60;0.95;;;20.60;84.70;;;;;;5037708;28;20670;-84
2022/05/25 13:04:59;;;;;;;3.10;0.90;;;20.70;85.40;;;;;;5037596;28;20165;-83
2022/05/25 13:07:47;;;;;;;3.88;0.77;;;20.90;84.10;;;;;;5037650;28;20174;-81
2022/05/25 13:10:32;;;;;;;2.10;0.80;;;20.50;85.00;;;;;;5036937;28;20173;-83
2022/05/25 13:13:33;;;;;;;5.35;1.17;;;20.30;85.20;;;;;;5035285;28;20208;-82
2022/05/25 13:16:00;;;;;;;2.80;1.27;;;20.00;86.60;;;;;;5037686;28;20548;-83
2022/05/25 13:18:46;;;;;;;1.55;0.77;;;20.20;86.00;;;;;;5036368;28;20173;-82
2022/05/25 13:21:29;;;;;;;1.00;0.70;;;20.30;86.80;;;;;;5037237;28;20216;-84
2022/05/25 13:23:55;;;;;;;1.55;0.93;;;20.00;83.50;;;;;;5034882;28;20216;-83
2022/05/25 13:26:50;;;;;;;2.10;0.80;;;19.60;84.80;;;;;;5034817;28;20239;-83
2022/05/25 13:29:36;;;;;;;0.77;0.77;;;19.70;87.20;;;;;;5020964;28;20182;-83
2022/05/25 13:32:13;;;;;;;2.03;0.97;;;19.40;87.20;;;;;;5035558;28;20284;-81
2022/05/25 13:34:39;;;;;;;0.80;0.80;;;19.40;85.50;;;;;;5034560;28;20693;-82
2022/05/25 13:37:09;;;;;;;2.70;1.00;;;19.30;86.70;;;;;;5034605;28;20213;-81
2022/05/25 13:39:35;;;;;;;0.87;0.80;;;19.20;86.40;;;;;;5035112;28;20252;-81